createdAt,value
2018-09-11T00:00:58.969Z,71.30
2018-09-11T00:03:42.589Z,70.50
2018-09-11T00:06:26.226Z,70.60
2018-09-11T00:09:11.752Z,70.80
2018-09-11T00:11:55.355Z,70.80
2018-09-11T00:14:38.943Z,70.90
2018-09-11T00:17:22.525Z,71.10
2018-09-11T00:20:06.197Z,71.40
2018-09-11T00:22:49.813Z,71.40
2018-09-11T00:25:33.425Z,71.50
2018-09-11T00:28:17.098Z,71.50
2018-09-11T00:31:00.714Z,71.60
2018-09-11T00:33:44.333Z,71.80
2018-09-11T00:36:27.942Z,72.00
2018-09-11T00:39:11.603Z,71.80
2018-09-11T00:41:55.213Z,72.00
2018-09-11T00:44:38.877Z,72.20
2018-09-11T00:47:23.341Z,72.60
2018-09-11T00:50:06.994Z,73.70
2018-09-11T00:52:50.620Z,73.00
2018-09-11T00:55:34.230Z,73.70
2018-09-11T00:58:17.879Z,73.70
2018-09-11T01:01:01.502Z,74.20
2018-09-11T01:03:45.222Z,74.50
2018-09-11T01:06:28.866Z,74.60
2018-09-11T01:09:12.549Z,75.00
2018-09-11T01:11:56.158Z,75.20
2018-09-11T01:14:40.036Z,75.60
2018-09-11T01:17:23.725Z,75.70
2018-09-11T01:20:07.811Z,75.80
2018-09-11T01:22:51.445Z,77.00
2018-09-11T01:25:35.033Z,75.60
2018-09-11T01:28:18.689Z,76.10
2018-09-11T01:31:02.336Z,76.40
2018-09-11T01:33:45.976Z,75.80
2018-09-11T01:36:29.627Z,75.60
2018-09-11T01:39:13.955Z,75.60
2018-09-11T01:41:57.574Z,76.20
2018-09-11T01:44:41.213Z,75.70
2018-09-11T01:47:24.853Z,75.90
2018-09-11T01:50:08.466Z,76.00
2018-09-11T01:52:52.071Z,76.00
2018-09-11T01:55:35.705Z,76.00
2018-09-11T01:58:19.326Z,76.00
2018-09-11T02:01:02.980Z,76.10
2018-09-11T02:03:46.597Z,76.10
2018-09-11T02:06:30.246Z,76.10
2018-09-11T02:11:57.223Z,76.20
2018-09-11T02:14:40.962Z,76.20
2018-09-11T02:17:24.657Z,76.50
2018-09-11T02:20:08.332Z,76.50
2018-09-11T02:22:51.951Z,76.90
2018-09-11T02:28:18.890Z,77.10
2018-09-11T02:31:02.586Z,77.10
2018-09-11T02:33:46.218Z,77.20
2018-09-11T02:39:13.498Z,77.60
2018-09-11T02:44:40.401Z,77.80
2018-09-11T02:50:07.817Z,78.00
2018-09-11T02:55:34.849Z,77.90
2018-09-11T02:58:18.457Z,78.10
2018-09-11T03:01:02.082Z,78.10
2018-09-11T03:03:45.682Z,78.20
2018-09-11T03:06:29.391Z,78.20
2018-09-11T03:11:56.353Z,78.20
2018-09-11T03:14:40.037Z,78.20
2018-09-11T03:17:23.664Z,78.10
2018-09-11T03:20:07.297Z,78.00
2018-09-11T03:22:50.902Z,78.50
2018-09-11T03:25:34.505Z,78.00
2018-09-11T03:31:01.440Z,77.90
2018-09-11T03:33:45.045Z,78.00
2018-09-11T03:36:28.730Z,78.00
2018-09-11T03:39:12.341Z,78.30
2018-09-11T03:41:55.997Z,78.40
2018-09-11T03:44:39.608Z,78.50
2018-09-11T03:47:23.246Z,78.90
2018-09-11T03:50:06.895Z,78.80
2018-09-11T03:52:50.501Z,79.30
2018-09-11T03:55:34.155Z,78.90
2018-09-11T03:58:18.642Z,79.70
2018-09-11T04:01:02.261Z,79.00
2018-09-11T04:03:45.897Z,79.00
2018-09-11T04:06:29.500Z,79.70
2018-09-11T04:09:13.635Z,79.00
2018-09-11T04:11:57.268Z,78.90
2018-09-11T04:14:40.906Z,79.10
2018-09-11T04:17:31.833Z,79.20
2018-09-11T04:20:15.477Z,79.20
2018-09-11T04:22:59.985Z,79.50
2018-09-11T04:25:43.695Z,80.10
2018-09-11T04:28:27.218Z,80.40
2018-09-11T04:31:10.834Z,79.80
2018-09-11T04:33:54.449Z,80.40
2018-09-11T04:36:38.090Z,79.90
2018-09-11T04:39:21.686Z,80.00
2018-09-11T04:42:05.361Z,80.00
2018-09-11T04:44:49.022Z,80.00
2018-09-11T04:47:32.645Z,80.10
2018-09-11T04:50:16.249Z,80.30
2018-09-11T04:52:59.869Z,81.20
2018-09-11T04:55:43.520Z,80.50
2018-09-11T04:58:27.161Z,80.60
2018-09-11T05:01:10.765Z,80.60
2018-09-11T05:03:54.474Z,80.80
2018-09-11T05:06:38.098Z,80.90
2018-09-11T05:09:21.714Z,80.90
2018-09-11T05:12:05.361Z,80.90
2018-09-11T05:14:48.964Z,81.10
2018-09-11T05:17:32.583Z,81.30
2018-09-11T05:20:16.297Z,81.50
2018-09-11T05:22:59.907Z,81.50
2018-09-11T05:25:43.554Z,81.40
2018-09-11T05:28:27.212Z,81.50
2018-09-11T05:31:10.809Z,81.50
2018-09-11T05:33:54.421Z,81.60
2018-09-11T05:36:38.069Z,81.60
2018-09-11T05:39:21.703Z,81.60
2018-09-11T05:42:05.549Z,81.50
2018-09-11T05:44:49.113Z,81.60
2018-09-11T05:47:32.771Z,81.60
2018-09-11T05:50:16.577Z,82.00
2018-09-11T05:53:00.204Z,81.40
2018-09-11T05:55:43.941Z,82.00
2018-09-11T05:58:28.538Z,81.20
2018-09-11T06:01:12.053Z,81.00
2018-09-11T06:03:55.685Z,81.00
2018-09-11T06:06:39.931Z,80.30
2018-09-11T06:09:23.541Z,80.30
2018-09-11T06:12:07.184Z,79.70
2018-09-11T06:14:50.831Z,79.30
2018-09-11T06:17:34.467Z,75.70
2018-09-11T06:20:18.097Z,74.80
2018-09-11T06:23:01.692Z,72.20
2018-09-11T06:25:46.194Z,68.60
2018-09-11T06:28:29.794Z,63.90
2018-09-11T06:31:13.403Z,59.10
2018-09-11T06:33:57.029Z,55.50
2018-09-11T06:36:40.652Z,50.30
2018-09-11T06:39:24.288Z,47.90
2018-09-11T06:42:07.893Z,45.00
2018-09-11T06:44:51.576Z,40.90
2018-09-11T06:47:35.195Z,39.80
2018-09-11T06:50:18.808Z,39.60
2018-09-11T06:53:03.275Z,39.40
2018-09-11T06:55:46.901Z,38.40
2018-09-11T06:58:30.669Z,36.50
2018-09-11T07:01:14.297Z,37.00
2018-09-11T07:03:57.937Z,35.80
2018-09-11T07:06:41.570Z,34.20
2018-09-11T07:09:25.193Z,33.60
2018-09-11T07:12:08.846Z,32.20
2018-09-11T07:14:52.484Z,32.80
2018-09-11T07:17:36.108Z,32.80
2018-09-11T07:20:20.056Z,34.40
2018-09-11T07:23:03.363Z,34.40
2018-09-11T07:25:46.952Z,35.30
2018-09-11T07:28:30.564Z,35.50
2018-09-11T07:31:14.158Z,38.60
2018-09-11T07:33:57.794Z,39.40
2018-09-11T07:36:41.391Z,40.70
2018-09-11T07:39:25.008Z,40.40
2018-09-11T07:42:08.773Z,40.30
2018-09-11T07:44:52.365Z,40.70
2018-09-11T07:47:35.993Z,40.00
2018-09-11T07:50:19.630Z,38.30
2018-09-11T07:53:03.494Z,35.70
2018-09-11T07:55:47.204Z,32.40
2018-09-11T07:58:30.845Z,30.00
2018-09-11T08:01:14.467Z,29.30
2018-09-11T08:03:58.115Z,28.20
2018-09-11T08:06:41.773Z,26.80
2018-09-11T08:09:25.440Z,26.20
2018-09-11T08:12:08.996Z,26.60
2018-09-11T08:14:53.096Z,25.60
2018-09-11T08:17:37.455Z,25.40
2018-09-11T08:20:21.088Z,25.60
2018-09-11T08:23:04.814Z,24.60
2018-09-11T08:25:48.466Z,24.20
2018-09-11T08:28:32.090Z,23.60
2018-09-11T08:31:15.744Z,23.10
2018-09-11T08:33:59.298Z,22.60
2018-09-11T08:36:42.907Z,22.40
2018-09-11T08:39:26.510Z,22.30
2018-09-11T08:42:10.165Z,22.00
2018-09-11T08:44:53.829Z,22.00
2018-09-11T08:47:37.409Z,22.10
2018-09-11T08:50:21.032Z,23.10
2018-09-11T08:53:04.693Z,23.80
2018-09-11T08:55:48.317Z,23.60
2018-09-11T08:58:31.976Z,24.80
2018-09-11T09:01:15.540Z,23.50
2018-09-11T09:03:59.209Z,24.10
2018-09-11T09:06:42.838Z,24.20
2018-09-11T09:09:26.503Z,27.70
2018-09-11T09:12:10.126Z,26.10
2018-09-11T09:14:53.772Z,26.80
2018-09-11T09:17:38.249Z,27.00
2018-09-11T09:20:21.886Z,27.80
2018-09-11T09:23:05.555Z,27.90
2018-09-11T09:25:49.263Z,26.20
2018-09-11T09:28:32.913Z,26.00
2018-09-11T09:31:16.538Z,26.10
2018-09-11T09:34:00.150Z,25.10
2018-09-11T09:42:10.439Z,22.80
2018-09-11T09:44:54.030Z,22.20
2018-09-11T09:47:37.677Z,21.80
2018-09-11T09:50:21.300Z,21.90
2018-09-11T09:53:04.941Z,21.60
2018-09-11T09:55:48.580Z,21.30
2018-09-11T09:58:32.312Z,20.60
2018-09-11T10:01:21.103Z,21.30
2018-09-11T10:04:04.747Z,21.20
2018-09-11T10:06:48.334Z,20.80
2018-09-11T10:09:31.898Z,19.70
2018-09-11T10:12:15.547Z,20.20
2018-09-11T10:14:59.174Z,19.30
2018-09-11T10:17:42.985Z,20.10
2018-09-11T10:20:26.522Z,20.80
2018-09-11T10:23:10.148Z,20.70
2018-09-11T10:25:53.898Z,21.10
2018-09-11T10:28:37.454Z,20.90
2018-09-11T10:31:21.094Z,20.90
2018-09-11T10:34:04.667Z,20.50
2018-09-11T10:36:48.290Z,20.70
2018-09-11T10:39:32.014Z,21.00
2018-09-11T10:42:15.570Z,21.50
2018-09-11T10:44:59.231Z,21.60
2018-09-11T10:47:43.092Z,22.50
2018-09-11T10:50:26.762Z,22.90
2018-09-11T10:53:10.347Z,22.10
2018-09-11T10:55:54.823Z,22.70
2018-09-11T10:58:38.461Z,22.30
2018-09-11T11:01:22.129Z,22.10
2018-09-11T11:04:06.253Z,22.10
2018-09-11T11:06:49.982Z,22.10
2018-09-11T11:09:33.578Z,22.10
2018-09-11T11:12:17.189Z,22.40
2018-09-11T11:15:01.507Z,22.80
2018-09-11T11:17:45.070Z,23.60
2018-09-11T11:20:28.905Z,23.70
2018-09-11T11:23:12.553Z,23.80
2018-09-11T11:25:56.171Z,24.10
2018-09-11T11:28:39.962Z,24.50
2018-09-11T11:31:23.611Z,24.60
2018-09-11T11:34:07.215Z,24.60
2018-09-11T11:36:52.282Z,24.50
2018-09-11T11:39:35.881Z,24.60
2018-09-11T11:42:19.529Z,24.50
2018-09-11T11:45:03.108Z,24.30
2018-09-11T11:47:46.722Z,24.50
2018-09-11T11:50:30.366Z,24.90
2018-09-11T11:53:13.993Z,25.50
2018-09-11T11:55:57.661Z,25.70
2018-09-11T12:01:24.624Z,26.50
2018-09-11T12:04:08.464Z,26.50
2018-09-11T12:06:52.097Z,26.90
2018-09-11T12:09:35.714Z,27.30
2018-09-11T12:12:19.331Z,27.60
2018-09-11T12:15:02.951Z,28.10
2018-09-11T12:17:46.539Z,28.40
2018-09-11T12:20:30.381Z,28.30
2018-09-11T12:23:14.157Z,29.20
2018-09-11T12:25:57.687Z,29.20
2018-09-11T12:28:41.279Z,29.90
2018-09-11T12:31:24.893Z,29.80
2018-09-11T12:34:08.663Z,30.00
2018-09-11T12:36:52.263Z,31.30
2018-09-11T12:39:35.878Z,32.50
2018-09-11T12:42:19.484Z,31.50
2018-09-11T12:45:03.137Z,31.80
2018-09-11T12:47:47.190Z,32.30
2018-09-11T12:50:30.469Z,32.10
2018-09-11T12:53:14.030Z,32.30
2018-09-11T12:55:57.665Z,33.70
2018-09-11T12:58:41.251Z,32.60
2018-09-11T13:01:24.865Z,32.70
2018-09-11T13:04:08.709Z,33.30
2018-09-11T13:06:53.346Z,33.50
2018-09-11T13:09:36.935Z,33.70
2018-09-11T13:12:20.518Z,34.00
2018-09-11T13:15:04.366Z,34.30
2018-09-11T13:17:47.911Z,34.40
2018-09-11T13:20:31.529Z,35.10
2018-09-11T13:23:15.165Z,35.70
2018-09-11T13:25:58.982Z,36.30
2018-09-11T13:28:42.665Z,36.20
2018-09-11T13:31:26.238Z,36.40
2018-09-11T13:34:09.838Z,36.70
2018-09-11T13:36:53.434Z,36.20
2018-09-11T13:39:37.070Z,36.20
2018-09-11T13:42:20.645Z,36.50
2018-09-11T13:45:04.242Z,37.10
2018-09-11T13:47:47.856Z,37.40
2018-09-11T13:50:31.430Z,37.50
2018-09-11T13:53:15.050Z,37.10
2018-09-11T13:55:58.734Z,37.20
2018-09-11T13:58:42.314Z,37.00
2018-09-11T14:01:27.137Z,37.10
2018-09-11T14:04:10.745Z,37.10
2018-09-11T14:06:54.369Z,37.10
2018-09-11T14:09:38.001Z,37.60
2018-09-11T14:12:21.654Z,37.70
2018-09-11T14:15:05.454Z,37.70
2018-09-11T14:17:49.860Z,37.90
2018-09-11T14:20:33.460Z,38.70
2018-09-11T14:23:17.114Z,38.30
2018-09-11T14:26:00.770Z,38.40
2018-09-11T14:28:44.361Z,38.90
2018-09-11T14:31:28.038Z,39.70
2018-09-11T14:34:11.649Z,39.90
2018-09-11T14:36:55.260Z,39.50
2018-09-11T14:39:38.950Z,39.50
2018-09-11T14:42:22.571Z,40.10
2018-09-11T14:45:06.194Z,39.80
2018-09-11T14:47:49.831Z,40.10
2018-09-11T14:50:33.423Z,40.20
2018-09-11T14:53:17.096Z,40.50
2018-09-11T14:56:01.208Z,40.70
2018-09-11T14:58:44.807Z,40.90
2018-09-11T15:01:28.399Z,41.30
2018-09-11T15:04:12.123Z,41.20
2018-09-11T15:06:55.694Z,42.20
2018-09-11T15:09:39.312Z,41.80
2018-09-11T15:12:22.905Z,41.70
2018-09-11T15:15:06.532Z,41.70
2018-09-11T15:17:50.122Z,41.70
2018-09-11T15:20:33.732Z,41.70
2018-09-11T15:23:17.337Z,41.70
2018-09-11T15:26:00.974Z,41.60
2018-09-11T15:28:44.566Z,42.10
2018-09-11T15:31:28.816Z,42.70
2018-09-11T15:34:12.485Z,42.90
2018-09-11T15:36:56.143Z,43.10
2018-09-11T15:39:40.454Z,42.90
2018-09-11T15:42:24.053Z,43.10
2018-09-11T15:45:07.691Z,43.20
2018-09-11T15:47:51.277Z,43.10
2018-09-11T15:50:35.019Z,43.10
2018-09-11T15:53:18.602Z,42.00
2018-09-11T15:56:02.382Z,43.40
2018-09-11T15:58:46.887Z,44.10
2018-09-11T16:01:30.503Z,43.80
2018-09-11T16:04:14.264Z,43.80
2018-09-11T16:06:58.045Z,44.10
2018-09-11T16:09:41.618Z,44.70
2018-09-11T16:12:25.223Z,44.10
2018-09-11T16:15:08.925Z,44.20
2018-09-11T16:17:52.461Z,44.20
2018-09-11T16:20:36.101Z,44.60
2018-09-11T16:26:03.130Z,44.50
2018-09-11T16:28:46.747Z,44.60
2018-09-11T16:31:30.781Z,44.60
2018-09-11T16:34:14.414Z,44.80
2018-09-11T16:36:58.088Z,45.00
2018-09-11T16:39:41.678Z,45.30
2018-09-11T16:42:25.275Z,45.20
2018-09-11T16:45:09.189Z,45.30
2018-09-11T16:47:52.772Z,45.30
2018-09-11T16:50:36.472Z,45.30
2018-09-11T16:53:20.251Z,45.50
2018-09-11T16:56:03.842Z,46.10
2018-09-11T16:58:47.469Z,46.10
2018-09-11T17:01:31.118Z,46.10
2018-09-11T17:04:14.730Z,46.20
2018-09-11T17:06:58.318Z,46.00
2018-09-11T17:09:41.938Z,45.30
2018-09-11T17:12:25.677Z,45.40
2018-09-11T17:15:09.217Z,45.50
2018-09-11T17:17:52.892Z,45.50
2018-09-11T17:20:36.487Z,46.30
2018-09-11T17:23:20.250Z,45.90
2018-09-11T17:26:03.952Z,46.10
2018-09-11T17:28:47.576Z,46.60
2018-09-11T17:31:31.226Z,46.10
2018-09-11T17:34:14.875Z,46.70
2018-09-11T17:36:58.515Z,46.30
2018-09-11T17:39:42.181Z,46.90
2018-09-11T17:42:25.755Z,46.30
2018-09-11T17:45:09.350Z,46.30
2018-09-11T17:47:54.773Z,46.30
2018-09-11T17:50:38.352Z,46.40
2018-09-11T17:53:21.968Z,46.40
2018-09-11T17:56:05.780Z,46.40
2018-09-11T17:58:50.563Z,46.50
2018-09-11T18:01:34.110Z,46.40
2018-09-11T18:04:17.717Z,46.40
2018-09-11T18:07:01.309Z,46.80
2018-09-11T18:09:44.905Z,46.40
2018-09-11T18:12:28.526Z,46.40
2018-09-11T18:15:12.113Z,46.90
2018-09-11T18:17:55.697Z,46.30
2018-09-11T18:20:39.302Z,46.40
2018-09-11T18:23:22.902Z,46.40
2018-09-11T18:26:06.651Z,47.10
2018-09-11T18:28:50.302Z,46.60
2018-09-11T18:31:33.921Z,46.80
2018-09-11T18:34:17.561Z,47.00
2018-09-11T18:37:01.156Z,46.90
2018-09-11T18:39:44.728Z,47.00
2018-09-11T18:42:28.344Z,46.80
2018-09-11T18:45:11.922Z,47.60
2018-09-11T18:47:55.571Z,47.80
2018-09-11T18:50:39.161Z,47.40
2018-09-11T18:53:22.797Z,47.40
2018-09-11T18:56:06.473Z,47.50
2018-09-11T18:58:50.087Z,47.70
2018-09-11T19:01:33.731Z,47.90
2018-09-11T19:04:17.461Z,48.10
2018-09-11T19:07:03.579Z,48.10
2018-09-11T19:09:54.943Z,48.40
2018-09-11T19:12:47.788Z,48.30
2018-09-11T19:15:31.351Z,50.80
2018-09-11T19:18:15.081Z,48.40
2018-09-11T19:20:58.649Z,48.50
2018-09-11T19:23:43.183Z,48.60
2018-09-11T19:26:26.796Z,48.60
2018-09-11T19:29:10.393Z,48.60
2018-09-11T19:34:37.336Z,48.80
2018-09-11T19:42:47.650Z,49.10
2018-09-11T19:45:31.457Z,49.20
2018-09-11T19:50:58.306Z,49.40
2018-09-11T19:59:08.856Z,49.60
2018-09-11T20:04:38.347Z,49.60
2018-09-11T20:10:05.570Z,50.00
2018-09-11T20:20:59.185Z,51.00
2018-09-11T20:23:42.821Z,51.10
2018-09-11T20:26:26.444Z,51.20
2018-09-11T20:29:10.039Z,51.40
2018-09-11T20:31:53.733Z,51.60
2018-09-11T20:37:21.275Z,51.80
2018-09-11T20:40:05.244Z,51.90
2018-09-11T20:42:48.840Z,52.20
2018-09-11T20:45:32.478Z,52.30
2018-09-11T20:48:16.158Z,52.30
2018-09-11T20:51:00.287Z,52.60
2018-09-11T20:56:27.329Z,52.60
2018-09-11T20:59:10.901Z,52.80
2018-09-11T21:01:54.542Z,53.00
2018-09-11T21:04:38.252Z,53.00
2018-09-11T21:07:21.865Z,53.10
2018-09-11T21:10:08.874Z,53.70
2018-09-11T21:12:52.624Z,54.00
2018-09-11T21:15:36.362Z,54.10
2018-09-11T21:18:20.011Z,54.20
2018-09-11T21:21:03.717Z,54.40
2018-09-11T21:23:48.000Z,54.20
2018-09-11T21:26:31.618Z,54.50
2018-09-11T21:29:15.255Z,54.70
2018-09-11T21:31:58.862Z,54.90
2018-09-11T21:34:43.558Z,55.00
2018-09-11T21:37:27.157Z,55.50
2018-09-11T21:40:11.541Z,56.00
2018-09-11T21:42:55.146Z,56.40
2018-09-11T21:45:38.929Z,56.60
2018-09-11T21:48:22.564Z,56.80
2018-09-11T21:51:06.150Z,56.30
2018-09-11T21:53:49.843Z,56.30
2018-09-11T21:56:34.218Z,56.30
2018-09-11T21:59:17.854Z,56.50
2018-09-11T22:02:02.458Z,56.50
2018-09-11T22:04:46.129Z,56.80
2018-09-11T22:07:29.762Z,57.10
2018-09-11T22:10:13.401Z,57.30
2018-09-11T22:12:57.025Z,57.60
2018-09-11T22:15:40.641Z,57.90
2018-09-11T22:18:24.289Z,58.00
2018-09-11T22:21:07.889Z,58.30
2018-09-11T22:23:51.560Z,58.40
2018-09-11T22:26:35.266Z,58.50
2018-09-11T22:29:18.933Z,58.60
2018-09-11T22:32:02.539Z,58.80
2018-09-11T22:34:46.166Z,59.00
2018-09-11T22:37:29.755Z,58.80
2018-09-11T22:40:13.358Z,58.80
2018-09-11T22:42:57.015Z,58.90
2018-09-11T22:45:40.653Z,58.80
2018-09-11T22:48:24.290Z,59.10
2018-09-11T22:51:07.962Z,58.80
2018-09-11T22:53:51.637Z,59.10
2018-09-11T22:56:35.318Z,58.40
2018-09-11T22:59:18.918Z,58.10
2018-09-11T23:02:02.485Z,58.10
2018-09-11T23:04:46.094Z,58.10
2018-09-11T23:07:29.715Z,58.00
2018-09-11T23:10:13.297Z,57.90
2018-09-11T23:12:56.921Z,58.40
2018-09-11T23:15:40.525Z,58.70
2018-09-11T23:18:24.158Z,58.10
2018-09-11T23:21:07.736Z,58.50
2018-09-11T23:23:51.358Z,58.10
2018-09-11T23:26:34.951Z,58.00
2018-09-11T23:29:18.588Z,57.70
2018-09-11T23:32:02.249Z,57.90
2018-09-11T23:34:45.912Z,57.50
2018-09-11T23:37:29.452Z,57.70
2018-09-11T23:40:13.051Z,57.50
2018-09-11T23:42:56.668Z,57.60
2018-09-11T23:45:40.266Z,57.60
2018-09-11T23:48:23.897Z,57.70
2018-09-11T23:51:07.605Z,57.70
2018-09-11T23:53:51.240Z,57.00
2018-09-11T23:56:34.915Z,57.60
2018-09-11T23:59:18.547Z,57.20
